sensor_id;sensor_type;location;lat;lon;timestamp;P1;durP1;ratioP1;P2;durP2;ratioP2
10479;SDS011;12789;42.610;23.040;2024-02-28T00:00:04;18.63;;;8.10;;
10479;SDS011;12789;42.610;23.040;2024-02-28T00:02:31;10.67;;;7.67;;
10479;SDS011;12789;42.610;23.040;2024-02-28T00:04:57;12.43;;;7.37;;
10479;SDS011;12789;42.610;23.040;2024-02-28T00:07:26;16.37;;;8.17;;
10479;SDS011;12789;42.610;23.040;2024-02-28T00:09:52;14.73;;;8.53;;
10479;SDS011;12789;42.610;23.040;2024-02-28T00:12:22;11.63;;;7.37;;
10479;SDS011;12789;42.610;23.040;2024-02-28T00:14:50;10.83;;;7.60;;
10479;SDS011;12789;42.610;23.040;2024-02-28T00:17:16;15.00;;;7.33;;
10479;SDS011;12789;42.610;23.040;2024-02-28T00:19:43;12.53;;;8.00;;
10479;SDS011;12789;42.610;23.040;2024-02-28T00:22:10;11.90;;;8.00;;
10479;SDS011;12789;42.610;23.040;2024-02-28T00:24:37;14.10;;;7.93;;
10479;SDS011;12789;42.610;23.040;2024-02-28T00:27:04;13.27;;;7.13;;
10479;SDS011;12789;42.610;23.040;2024-02-28T00:29:30;8.20;;;6.50;;
10479;SDS011;12789;42.610;23.040;2024-02-28T00:31:57;13.27;;;7.60;;
10479;SDS011;12789;42.610;23.040;2024-02-28T00:34:23;14.03;;;7.20;;
10479;SDS011;12789;42.610;23.040;2024-02-28T00:36:51;14.70;;;7.07;;
10479;SDS011;12789;42.610;23.040;2024-02-28T00:39:17;11.77;;;7.40;;
10479;SDS011;12789;42.610;23.040;2024-02-28T00:41:45;10.37;;;6.90;;
10479;SDS011;12789;42.610;23.040;2024-02-28T00:44:12;10.13;;;7.17;;
10479;SDS011;12789;42.610;23.040;2024-02-28T00:46:39;10.97;;;7.27;;
10479;SDS011;12789;42.610;23.040;2024-02-28T00:49:05;14.53;;;7.43;;
10479;SDS011;12789;42.610;23.040;2024-02-28T00:51:32;11.37;;;7.57;;
10479;SDS011;12789;42.610;23.040;2024-02-28T00:53:58;17.97;;;8.23;;
10479;SDS011;12789;42.610;23.040;2024-02-28T00:56:25;11.97;;;7.27;;
10479;SDS011;12789;42.610;23.040;2024-02-28T00:58:53;13.23;;;7.57;;
10479;SDS011;12789;42.610;23.040;2024-02-28T01:01:20;9.70;;;7.27;;
10479;SDS011;12789;42.610;23.040;2024-02-28T01:03:46;8.53;;;6.93;;
10479;SDS011;12789;42.610;23.040;2024-02-28T01:06:13;13.93;;;8.20;;
10479;SDS011;12789;42.610;23.040;2024-02-28T01:08:41;11.20;;;7.43;;
10479;SDS011;12789;42.610;23.040;2024-02-28T01:11:07;14.60;;;8.20;;
10479;SDS011;12789;42.610;23.040;2024-02-28T01:13:34;15.90;;;9.57;;
10479;SDS011;12789;42.610;23.040;2024-02-28T01:16:02;16.30;;;8.97;;
10479;SDS011;12789;42.610;23.040;2024-02-28T01:18:28;22.20;;;10.53;;
10479;SDS011;12789;42.610;23.040;2024-02-28T01:20:56;24.83;;;11.63;;
10479;SDS011;12789;42.610;23.040;2024-02-28T01:23:22;24.40;;;12.60;;
10479;SDS011;12789;42.610;23.040;2024-02-28T01:25:49;23.20;;;13.40;;
10479;SDS011;12789;42.610;23.040;2024-02-28T01:28:15;24.67;;;12.73;;
10479;SDS011;12789;42.610;23.040;2024-02-28T01:30:42;20.07;;;11.10;;
10479;SDS011;12789;42.610;23.040;2024-02-28T01:33:10;21.77;;;11.97;;
10479;SDS011;12789;42.610;23.040;2024-02-28T01:35:37;19.90;;;12.00;;
10479;SDS011;12789;42.610;23.040;2024-02-28T01:38:04;20.83;;;11.33;;
10479;SDS011;12789;42.610;23.040;2024-02-28T01:40:30;22.63;;;12.43;;
10479;SDS011;12789;42.610;23.040;2024-02-28T01:43:02;25.93;;;11.97;;
10479;SDS011;12789;42.610;23.040;2024-02-28T01:45:28;26.03;;;13.37;;
10479;SDS011;12789;42.610;23.040;2024-02-28T01:47:55;21.60;;;13.90;;
10479;SDS011;12789;42.610;23.040;2024-02-28T01:50:23;21.67;;;13.97;;
10479;SDS011;12789;42.610;23.040;2024-02-28T01:52:49;27.20;;;14.23;;
10479;SDS011;12789;42.610;23.040;2024-02-28T01:55:16;30.67;;;18.73;;
10479;SDS011;12789;42.610;23.040;2024-02-28T01:57:43;37.33;;;22.27;;
10479;SDS011;12789;42.610;23.040;2024-02-28T02:00:10;36.47;;;22.40;;
10479;SDS011;12789;42.610;23.040;2024-02-28T02:02:37;32.60;;;21.10;;
10479;SDS011;12789;42.610;23.040;2024-02-28T02:05:04;39.77;;;18.77;;
10479;SDS011;12789;42.610;23.040;2024-02-28T02:07:32;28.67;;;19.37;;
10479;SDS011;12789;42.610;23.040;2024-02-28T02:09:59;26.77;;;18.43;;
10479;SDS011;12789;42.610;23.040;2024-02-28T02:12:25;32.20;;;19.27;;
10479;SDS011;12789;42.610;23.040;2024-02-28T02:14:52;28.57;;;17.53;;
10479;SDS011;12789;42.610;23.040;2024-02-28T02:17:18;30.63;;;16.57;;
10479;SDS011;12789;42.610;23.040;2024-02-28T02:19:45;31.27;;;16.20;;
10479;SDS011;12789;42.610;23.040;2024-02-28T02:22:13;33.93;;;15.13;;
10479;SDS011;12789;42.610;23.040;2024-02-28T02:24:41;24.33;;;14.57;;
10479;SDS011;12789;42.610;23.040;2024-02-28T02:27:07;19.43;;;12.70;;
10479;SDS011;12789;42.610;23.040;2024-02-28T02:29:34;22.97;;;12.10;;
10479;SDS011;12789;42.610;23.040;2024-02-28T02:32:00;25.70;;;12.80;;
10479;SDS011;12789;42.610;23.040;2024-02-28T02:34:27;24.60;;;12.80;;
10479;SDS011;12789;42.610;23.040;2024-02-28T02:36:53;20.47;;;12.03;;
10479;SDS011;12789;42.610;23.040;2024-02-28T02:39:20;20.43;;;12.03;;
10479;SDS011;12789;42.610;23.040;2024-02-28T02:41:48;21.83;;;11.53;;
10479;SDS011;12789;42.610;23.040;2024-02-28T02:44:15;21.20;;;11.10;;
10479;SDS011;12789;42.610;23.040;2024-02-28T02:46:42;21.37;;;11.50;;
10479;SDS011;12789;42.610;23.040;2024-02-28T02:49:08;20.10;;;11.20;;
10479;SDS011;12789;42.610;23.040;2024-02-28T02:51:35;23.87;;;11.33;;
10479;SDS011;12789;42.610;23.040;2024-02-28T02:54:01;23.13;;;11.50;;
10479;SDS011;12789;42.610;23.040;2024-02-28T02:56:28;21.37;;;11.50;;
10479;SDS011;12789;42.610;23.040;2024-02-28T02:58:56;26.77;;;12.07;;
10479;SDS011;12789;42.610;23.040;2024-02-28T03:01:22;20.53;;;11.50;;
10479;SDS011;12789;42.610;23.040;2024-02-28T03:03:49;25.90;;;11.83;;
10479;SDS011;12789;42.610;23.040;2024-02-28T03:06:15;21.17;;;12.53;;
10479;SDS011;12789;42.610;23.040;2024-02-28T03:08:42;30.67;;;12.93;;
10479;SDS011;12789;42.610;23.040;2024-02-28T03:11:09;25.67;;;12.93;;
10479;SDS011;12789;42.610;23.040;2024-02-28T03:13:36;27.33;;;14.23;;
10479;SDS011;12789;42.610;23.040;2024-02-28T03:16:04;25.97;;;14.43;;
10479;SDS011;12789;42.610;23.040;2024-02-28T03:18:31;29.20;;;15.40;;
10479;SDS011;12789;42.610;23.040;2024-02-28T03:20:58;27.00;;;14.83;;
10479;SDS011;12789;42.610;23.040;2024-02-28T03:23:24;26.70;;;15.40;;
10479;SDS011;12789;42.610;23.040;2024-02-28T03:25:51;30.90;;;14.73;;
10479;SDS011;12789;42.610;23.040;2024-02-28T03:28:17;28.40;;;15.87;;
10479;SDS011;12789;42.610;23.040;2024-02-28T03:30:44;27.43;;;16.13;;
10479;SDS011;12789;42.610;23.040;2024-02-28T03:33:12;45.07;;;23.97;;
10479;SDS011;12789;42.610;23.040;2024-02-28T03:35:38;36.17;;;21.03;;
10479;SDS011;12789;42.610;23.040;2024-02-28T03:38:05;39.60;;;23.73;;
10479;SDS011;12789;42.610;23.040;2024-02-28T03:40:32;43.97;;;26.20;;
10479;SDS011;12789;42.610;23.040;2024-02-28T03:42:58;40.63;;;24.03;;
10479;SDS011;12789;42.610;23.040;2024-02-28T03:45:27;43.10;;;24.37;;
10479;SDS011;12789;42.610;23.040;2024-02-28T03:47:53;43.03;;;21.33;;
10479;SDS011;12789;42.610;23.040;2024-02-28T03:50:21;45.20;;;21.27;;
10479;SDS011;12789;42.610;23.040;2024-02-28T03:52:48;28.63;;;19.43;;
10479;SDS011;12789;42.610;23.040;2024-02-28T03:55:15;42.97;;;27.87;;
10479;SDS011;12789;42.610;23.040;2024-02-28T03:57:41;52.03;;;29.33;;
10479;SDS011;12789;42.610;23.040;2024-02-28T04:00:09;53.13;;;31.37;;
10479;SDS011;12789;42.610;23.040;2024-02-28T04:02:36;65.63;;;42.13;;
10479;SDS011;12789;42.610;23.040;2024-02-28T04:05:03;65.43;;;40.97;;
10479;SDS011;12789;42.610;23.040;2024-02-28T04:07:32;58.60;;;36.63;;
10479;SDS011;12789;42.610;23.040;2024-02-28T04:09:58;57.87;;;37.13;;
10479;SDS011;12789;42.610;23.040;2024-02-28T04:12:25;45.20;;;25.77;;
10479;SDS011;12789;42.610;23.040;2024-02-28T04:14:51;37.23;;;24.23;;
10479;SDS011;12789;42.610;23.040;2024-02-28T04:17:18;31.23;;;19.20;;
10479;SDS011;12789;42.610;23.040;2024-02-28T04:19:45;33.17;;;18.40;;
10479;SDS011;12789;42.610;23.040;2024-02-28T04:22:11;26.03;;;16.57;;
10479;SDS011;12789;42.610;23.040;2024-02-28T04:24:39;27.17;;;15.23;;
10479;SDS011;12789;42.610;23.040;2024-02-28T04:27:05;28.43;;;14.33;;
10479;SDS011;12789;42.610;23.040;2024-02-28T04:29:34;30.37;;;15.13;;
10479;SDS011;12789;42.610;23.040;2024-02-28T04:32:01;32.53;;;14.73;;
10479;SDS011;12789;42.610;23.040;2024-02-28T04:34:27;27.30;;;14.70;;
10479;SDS011;12789;42.610;23.040;2024-02-28T04:36:54;22.23;;;13.87;;
10479;SDS011;12789;42.610;23.040;2024-02-28T04:39:21;28.97;;;14.07;;
10479;SDS011;12789;42.610;23.040;2024-02-28T04:41:48;29.80;;;13.23;;
10479;SDS011;12789;42.610;23.040;2024-02-28T04:44:15;29.03;;;13.43;;
10479;SDS011;12789;42.610;23.040;2024-02-28T04:46:42;28.57;;;13.67;;
10479;SDS011;12789;42.610;23.040;2024-02-28T04:49:08;28.70;;;14.30;;
10479;SDS011;12789;42.610;23.040;2024-02-28T04:51:35;30.67;;;15.03;;
10479;SDS011;12789;42.610;23.040;2024-02-28T04:54:01;33.67;;;15.33;;
10479;SDS011;12789;42.610;23.040;2024-02-28T04:56:28;36.13;;;16.03;;
10479;SDS011;12789;42.610;23.040;2024-02-28T04:58:56;32.30;;;15.27;;
10479;SDS011;12789;42.610;23.040;2024-02-28T05:01:22;25.30;;;11.80;;
10479;SDS011;12789;42.610;23.040;2024-02-28T05:03:49;21.57;;;10.40;;
10479;SDS011;12789;42.610;23.040;2024-02-28T05:06:15;19.83;;;10.57;;
10479;SDS011;12789;42.610;23.040;2024-02-28T05:08:42;20.50;;;12.03;;
10479;SDS011;12789;42.610;23.040;2024-02-28T05:11:08;21.27;;;12.23;;
10479;SDS011;12789;42.610;23.040;2024-02-28T05:13:35;24.57;;;11.63;;
10479;SDS011;12789;42.610;23.040;2024-02-28T05:16:03;23.40;;;12.83;;
10479;SDS011;12789;42.610;23.040;2024-02-28T05:18:30;25.07;;;13.23;;
10479;SDS011;12789;42.610;23.040;2024-02-28T05:20:56;24.13;;;12.67;;
10479;SDS011;12789;42.610;23.040;2024-02-28T05:23:23;87.30;;;50.90;;
10479;SDS011;12789;42.610;23.040;2024-02-28T05:25:50;31.00;;;19.87;;
10479;SDS011;12789;42.610;23.040;2024-02-28T05:28:17;28.47;;;16.33;;
10479;SDS011;12789;42.610;23.040;2024-02-28T05:30:43;37.23;;;16.30;;
10479;SDS011;12789;42.610;23.040;2024-02-28T05:33:11;35.77;;;17.97;;
10479;SDS011;12789;42.610;23.040;2024-02-28T05:35:38;46.33;;;20.17;;
10479;SDS011;12789;42.610;23.040;2024-02-28T05:38:05;49.63;;;21.60;;
10479;SDS011;12789;42.610;23.040;2024-02-28T05:40:31;63.00;;;29.17;;
10479;SDS011;12789;42.610;23.040;2024-02-28T05:42:58;73.07;;;37.00;;
10479;SDS011;12789;42.610;23.040;2024-02-28T05:45:24;40.83;;;21.33;;
10479;SDS011;12789;42.610;23.040;2024-02-28T05:47:51;46.83;;;20.47;;
10479;SDS011;12789;42.610;23.040;2024-02-28T05:50:19;35.77;;;19.33;;
10479;SDS011;12789;42.610;23.040;2024-02-28T05:52:45;36.27;;;20.33;;
10479;SDS011;12789;42.610;23.040;2024-02-28T05:55:12;39.03;;;21.20;;
10479;SDS011;12789;42.610;23.040;2024-02-28T05:57:39;90.03;;;42.27;;
10479;SDS011;12789;42.610;23.040;2024-02-28T06:00:06;182.77;;;98.27;;
10479;SDS011;12789;42.610;23.040;2024-02-28T06:02:35;84.80;;;39.03;;
10479;SDS011;12789;42.610;23.040;2024-02-28T06:05:01;87.23;;;35.83;;
10479;SDS011;12789;42.610;23.040;2024-02-28T06:07:29;161.63;;;55.57;;
10479;SDS011;12789;42.610;23.040;2024-02-28T06:09:56;206.37;;;65.20;;
10479;SDS011;12789;42.610;23.040;2024-02-28T06:12:23;207.27;;;65.77;;
10479;SDS011;12789;42.610;23.040;2024-02-28T06:14:50;205.43;;;67.93;;
10479;SDS011;12789;42.610;23.040;2024-02-28T06:17:16;204.03;;;68.30;;
10479;SDS011;12789;42.610;23.040;2024-02-28T06:19:43;223.33;;;70.87;;
10479;SDS011;12789;42.610;23.040;2024-02-28T06:22:09;193.60;;;64.80;;
10479;SDS011;12789;42.610;23.040;2024-02-28T06:24:37;198.53;;;60.60;;
10479;SDS011;12789;42.610;23.040;2024-02-28T06:27:04;155.53;;;59.93;;
10479;SDS011;12789;42.610;23.040;2024-02-28T06:29:31;124.73;;;44.87;;
10479;SDS011;12789;42.610;23.040;2024-02-28T06:31:57;135.47;;;44.87;;
10479;SDS011;12789;42.610;23.040;2024-02-28T06:34:24;112.20;;;41.50;;
10479;SDS011;12789;42.610;23.040;2024-02-28T06:36:50;103.90;;;40.20;;
10479;SDS011;12789;42.610;23.040;2024-02-28T06:39:17;85.63;;;36.07;;
10479;SDS011;12789;42.610;23.040;2024-02-28T06:41:44;81.03;;;35.37;;
10479;SDS011;12789;42.610;23.040;2024-02-28T06:44:11;77.20;;;33.60;;
10479;SDS011;12789;42.610;23.040;2024-02-28T06:46:37;69.67;;;32.53;;
10479;SDS011;12789;42.610;23.040;2024-02-28T06:49:04;72.03;;;31.43;;
10479;SDS011;12789;42.610;23.040;2024-02-28T06:51:31;71.23;;;31.47;;
10479;SDS011;12789;42.610;23.040;2024-02-28T06:53:57;65.80;;;30.40;;
10479;SDS011;12789;42.610;23.040;2024-02-28T06:56:24;73.10;;;30.57;;
10479;SDS011;12789;42.610;23.040;2024-02-28T06:58:52;73.37;;;32.63;;
10479;SDS011;12789;42.610;23.040;2024-02-28T07:01:18;75.70;;;30.97;;
10479;SDS011;12789;42.610;23.040;2024-02-28T07:03:46;63.17;;;28.30;;
10479;SDS011;12789;42.610;23.040;2024-02-28T07:06:12;52.17;;;28.30;;
10479;SDS011;12789;42.610;23.040;2024-02-28T07:08:39;49.17;;;23.40;;
10479;SDS011;12789;42.610;23.040;2024-02-28T07:11:12;43.17;;;20.70;;
10479;SDS011;12789;42.610;23.040;2024-02-28T07:13:39;40.13;;;19.53;;
10479;SDS011;12789;42.610;23.040;2024-02-28T07:16:07;38.60;;;18.63;;
10479;SDS011;12789;42.610;23.040;2024-02-28T07:18:33;39.50;;;18.07;;
10479;SDS011;12789;42.610;23.040;2024-02-28T07:21:00;37.87;;;18.97;;
10479;SDS011;12789;42.610;23.040;2024-02-28T07:23:27;41.30;;;18.23;;
10479;SDS011;12789;42.610;23.040;2024-02-28T07:25:53;39.50;;;19.73;;
10479;SDS011;12789;42.610;23.040;2024-02-28T07:28:20;37.33;;;19.47;;
10479;SDS011;12789;42.610;23.040;2024-02-28T07:30:46;46.17;;;20.57;;
10479;SDS011;12789;42.610;23.040;2024-02-28T07:33:14;40.53;;;20.13;;
10479;SDS011;12789;42.610;23.040;2024-02-28T07:35:44;39.40;;;20.07;;
10479;SDS011;12789;42.610;23.040;2024-02-28T07:38:11;38.87;;;19.43;;
10479;SDS011;12789;42.610;23.040;2024-02-28T07:40:37;34.77;;;19.40;;
10479;SDS011;12789;42.610;23.040;2024-02-28T07:43:04;41.20;;;20.77;;
10479;SDS011;12789;42.610;23.040;2024-02-28T07:45:30;73.40;;;42.73;;
10479;SDS011;12789;42.610;23.040;2024-02-28T07:47:57;50.03;;;26.23;;
10479;SDS011;12789;42.610;23.040;2024-02-28T07:50:25;34.17;;;20.73;;
10479;SDS011;12789;42.610;23.040;2024-02-28T07:52:53;34.63;;;19.37;;
10479;SDS011;12789;42.610;23.040;2024-02-28T07:55:20;48.17;;;20.77;;
10479;SDS011;12789;42.610;23.040;2024-02-28T07:57:47;48.87;;;23.03;;
10479;SDS011;12789;42.610;23.040;2024-02-28T08:00:16;47.10;;;23.90;;
10479;SDS011;12789;42.610;23.040;2024-02-28T08:02:44;51.07;;;26.07;;
10479;SDS011;12789;42.610;23.040;2024-02-28T08:05:10;56.73;;;26.20;;
10479;SDS011;12789;42.610;23.040;2024-02-28T08:07:38;48.37;;;26.70;;
10479;SDS011;12789;42.610;23.040;2024-02-28T08:10:05;42.27;;;25.63;;
10479;SDS011;12789;42.610;23.040;2024-02-28T08:12:32;48.63;;;26.57;;
10479;SDS011;12789;42.610;23.040;2024-02-28T08:14:59;48.93;;;25.20;;
10479;SDS011;12789;42.610;23.040;2024-02-28T08:17:25;43.50;;;23.37;;
10479;SDS011;12789;42.610;23.040;2024-02-28T08:19:52;53.33;;;23.97;;
10479;SDS011;12789;42.610;23.040;2024-02-28T08:22:19;40.67;;;21.90;;
10479;SDS011;12789;42.610;23.040;2024-02-28T08:24:47;38.27;;;21.17;;
10479;SDS011;12789;42.610;23.040;2024-02-28T08:27:17;40.57;;;19.47;;
10479;SDS011;12789;42.610;23.040;2024-02-28T08:29:43;37.80;;;18.83;;
10479;SDS011;12789;42.610;23.040;2024-02-28T08:32:11;32.30;;;17.70;;
10479;SDS011;12789;42.610;23.040;2024-02-28T08:34:38;31.17;;;18.70;;
10479;SDS011;12789;42.610;23.040;2024-02-28T08:37:04;34.07;;;18.67;;
10479;SDS011;12789;42.610;23.040;2024-02-28T08:39:31;37.00;;;18.50;;
10479;SDS011;12789;42.610;23.040;2024-02-28T08:41:59;28.37;;;16.70;;
10479;SDS011;12789;42.610;23.040;2024-02-28T08:44:25;31.75;;;18.02;;
10479;SDS011;12789;42.610;23.040;2024-02-28T08:46:52;33.42;;;16.75;;
10479;SDS011;12789;42.610;23.040;2024-02-28T08:49:18;35.20;;;15.98;;
10479;SDS011;12789;42.610;23.040;2024-02-28T08:51:45;27.27;;;14.90;;
10479;SDS011;12789;42.610;23.040;2024-02-28T08:54:12;29.73;;;15.27;;
10479;SDS011;12789;42.610;23.040;2024-02-28T08:56:38;25.00;;;12.70;;
10479;SDS011;12789;42.610;23.040;2024-02-28T08:59:06;26.60;;;11.23;;
10479;SDS011;12789;42.610;23.040;2024-02-28T09:01:33;15.15;;;8.02;;
10479;SDS011;12789;42.610;23.040;2024-02-28T09:04:01;13.57;;;7.00;;
10479;SDS011;12789;42.610;23.040;2024-02-28T09:06:27;13.07;;;6.15;;
10479;SDS011;12789;42.610;23.040;2024-02-28T09:08:54;19.02;;;6.85;;
10479;SDS011;12789;42.610;23.040;2024-02-28T09:11:20;13.57;;;6.45;;
10479;SDS011;12789;42.610;23.040;2024-02-28T09:13:47;12.18;;;5.50;;
10479;SDS011;12789;42.610;23.040;2024-02-28T09:16:15;15.68;;;4.63;;
10479;SDS011;12789;42.610;23.040;2024-02-28T09:18:41;11.95;;;4.63;;
10479;SDS011;12789;42.610;23.040;2024-02-28T09:21:08;11.00;;;6.30;;
10479;SDS011;12789;42.610;23.040;2024-02-28T09:23:35;9.13;;;5.63;;
10479;SDS011;12789;42.610;23.040;2024-02-28T09:26:02;8.93;;;5.03;;
10479;SDS011;12789;42.610;23.040;2024-02-28T09:28:29;11.98;;;5.13;;
10479;SDS011;12789;42.610;23.040;2024-02-28T09:30:56;58.00;;;36.95;;
10479;SDS011;12789;42.610;23.040;2024-02-28T09:33:24;15.88;;;5.15;;
10479;SDS011;12789;42.610;23.040;2024-02-28T09:35:50;9.93;;;4.72;;
10479;SDS011;12789;42.610;23.040;2024-02-28T09:38:17;8.23;;;3.80;;
10479;SDS011;12789;42.610;23.040;2024-02-28T09:40:45;13.18;;;4.10;;
10479;SDS011;12789;42.610;23.040;2024-02-28T09:43:14;5.47;;;3.15;;
10479;SDS011;12789;42.610;23.040;2024-02-28T09:45:41;6.65;;;3.45;;
10479;SDS011;12789;42.610;23.040;2024-02-28T09:48:08;11.32;;;3.83;;
10479;SDS011;12789;42.610;23.040;2024-02-28T09:50:36;6.65;;;3.55;;
10479;SDS011;12789;42.610;23.040;2024-02-28T09:53:04;6.50;;;3.78;;
10479;SDS011;12789;42.610;23.040;2024-02-28T09:55:31;11.63;;;5.18;;
10479;SDS011;12789;42.610;23.040;2024-02-28T09:57:57;9.35;;;4.50;;
10479;SDS011;12789;42.610;23.040;2024-02-28T10:00:24;9.98;;;3.78;;
10479;SDS011;12789;42.610;23.040;2024-02-28T10:02:51;10.98;;;4.15;;
10479;SDS011;12789;42.610;23.040;2024-02-28T10:05:19;9.90;;;4.20;;
10479;SDS011;12789;42.610;23.040;2024-02-28T10:07:49;10.20;;;3.83;;
10479;SDS011;12789;42.610;23.040;2024-02-28T10:10:16;12.82;;;4.22;;
10479;SDS011;12789;42.610;23.040;2024-02-28T10:12:43;7.57;;;3.80;;
10479;SDS011;12789;42.610;23.040;2024-02-28T10:15:10;4.95;;;3.30;;
10479;SDS011;12789;42.610;23.040;2024-02-28T10:17:36;9.93;;;4.18;;
10479;SDS011;12789;42.610;23.040;2024-02-28T10:20:03;5.03;;;3.65;;
10479;SDS011;12789;42.610;23.040;2024-02-28T10:22:33;12.07;;;3.60;;
10479;SDS011;12789;42.610;23.040;2024-02-28T10:25:01;7.75;;;3.13;;
10479;SDS011;12789;42.610;23.040;2024-02-28T10:27:31;6.63;;;3.00;;
10479;SDS011;12789;42.610;23.040;2024-02-28T10:29:58;4.75;;;2.65;;
10479;SDS011;12789;42.610;23.040;2024-02-28T10:32:24;11.73;;;3.40;;
10479;SDS011;12789;42.610;23.040;2024-02-28T10:34:51;11.45;;;3.72;;
10479;SDS011;12789;42.610;23.040;2024-02-28T10:37:17;7.30;;;3.20;;
10479;SDS011;12789;42.610;23.040;2024-02-28T10:39:44;9.43;;;2.67;;
10479;SDS011;12789;42.610;23.040;2024-02-28T10:42:13;6.85;;;3.15;;
10479;SDS011;12789;42.610;23.040;2024-02-28T10:44:41;5.72;;;3.35;;
10479;SDS011;12789;42.610;23.040;2024-02-28T10:47:08;5.10;;;2.88;;
10479;SDS011;12789;42.610;23.040;2024-02-28T10:49:34;5.35;;;2.33;;
10479;SDS011;12789;42.610;23.040;2024-02-28T10:52:01;6.43;;;2.50;;
10479;SDS011;12789;42.610;23.040;2024-02-28T10:54:29;7.57;;;2.20;;
10479;SDS011;12789;42.610;23.040;2024-02-28T10:56:57;6.50;;;1.95;;
10479;SDS011;12789;42.610;23.040;2024-02-28T10:59:26;11.02;;;2.30;;
10479;SDS011;12789;42.610;23.040;2024-02-28T11:01:54;8.70;;;2.08;;
10479;SDS011;12789;42.610;23.040;2024-02-28T11:04:20;4.15;;;2.25;;
10479;SDS011;12789;42.610;23.040;2024-02-28T11:06:48;5.05;;;2.50;;
10479;SDS011;12789;42.610;23.040;2024-02-28T11:09:18;10.18;;;2.92;;
10479;SDS011;12789;42.610;23.040;2024-02-28T11:11:45;4.82;;;2.50;;
10479;SDS011;12789;42.610;23.040;2024-02-28T11:14:14;6.72;;;2.97;;
10479;SDS011;12789;42.610;23.040;2024-02-28T11:16:42;5.10;;;2.80;;
10479;SDS011;12789;42.610;23.040;2024-02-28T11:19:18;5.28;;;2.40;;
10479;SDS011;12789;42.610;23.040;2024-02-28T11:21:45;10.48;;;2.65;;
10479;SDS011;12789;42.610;23.040;2024-02-28T11:24:12;6.47;;;2.67;;
10479;SDS011;12789;42.610;23.040;2024-02-28T11:26:39;5.07;;;2.20;;
10479;SDS011;12789;42.610;23.040;2024-02-28T11:29:06;6.63;;;2.50;;
10479;SDS011;12789;42.610;23.040;2024-02-28T11:31:33;8.45;;;2.33;;
10479;SDS011;12789;42.610;23.040;2024-02-28T11:34:01;6.07;;;2.25;;
10479;SDS011;12789;42.610;23.040;2024-02-28T11:36:28;4.28;;;2.13;;
10479;SDS011;12789;42.610;23.040;2024-02-28T11:38:54;5.00;;;2.35;;
10479;SDS011;12789;42.610;23.040;2024-02-28T11:41:27;6.30;;;2.47;;
10479;SDS011;12789;42.610;23.040;2024-02-28T11:43:54;9.93;;;2.75;;
10479;SDS011;12789;42.610;23.040;2024-02-28T11:46:20;5.18;;;2.47;;
10479;SDS011;12789;42.610;23.040;2024-02-28T11:48:47;7.38;;;1.98;;
10479;SDS011;12789;42.610;23.040;2024-02-28T11:51:14;3.15;;;1.70;;
10479;SDS011;12789;42.610;23.040;2024-02-28T11:53:41;5.65;;;2.22;;
10479;SDS011;12789;42.610;23.040;2024-02-28T11:56:08;6.70;;;2.10;;
10479;SDS011;12789;42.610;23.040;2024-02-28T11:58:34;4.97;;;2.20;;
10479;SDS011;12789;42.610;23.040;2024-02-28T12:01:01;5.22;;;1.95;;
10479;SDS011;12789;42.610;23.040;2024-02-28T12:03:27;3.67;;;2.30;;
10479;SDS011;12789;42.610;23.040;2024-02-28T12:05:54;7.57;;;2.70;;
10479;SDS011;12789;42.610;23.040;2024-02-28T12:08:23;8.10;;;2.80;;
10479;SDS011;12789;42.610;23.040;2024-02-28T12:10:49;6.95;;;2.63;;
10479;SDS011;12789;42.610;23.040;2024-02-28T12:13:16;4.78;;;2.08;;
10479;SDS011;12789;42.610;23.040;2024-02-28T12:15:43;5.22;;;2.17;;
10479;SDS011;12789;42.610;23.040;2024-02-28T12:18:10;4.75;;;2.00;;
10479;SDS011;12789;42.610;23.040;2024-02-28T12:20:36;4.22;;;2.20;;
10479;SDS011;12789;42.610;23.040;2024-02-28T12:23:03;6.28;;;2.10;;
10479;SDS011;12789;42.610;23.040;2024-02-28T12:25:31;8.65;;;1.95;;
10479;SDS011;12789;42.610;23.040;2024-02-28T12:28:00;4.43;;;1.98;;
10479;SDS011;12789;42.610;23.040;2024-02-28T12:30:26;5.85;;;2.40;;
10479;SDS011;12789;42.610;23.040;2024-02-28T12:32:53;6.53;;;2.40;;
10479;SDS011;12789;42.610;23.040;2024-02-28T12:35:19;3.50;;;2.20;;
10479;SDS011;12789;42.610;23.040;2024-02-28T12:37:46;18.67;;;13.30;;
10479;SDS011;12789;42.610;23.040;2024-02-28T12:40:13;6.07;;;2.20;;
10479;SDS011;12789;42.610;23.040;2024-02-28T12:42:42;5.18;;;2.28;;
10479;SDS011;12789;42.610;23.040;2024-02-28T12:45:09;3.17;;;1.90;;
10479;SDS011;12789;42.610;23.040;2024-02-28T12:47:35;3.95;;;2.55;;
10479;SDS011;12789;42.610;23.040;2024-02-28T12:50:02;8.18;;;2.63;;
10479;SDS011;12789;42.610;23.040;2024-02-28T12:52:29;6.57;;;2.47;;
10479;SDS011;12789;42.610;23.040;2024-02-28T12:54:56;5.28;;;2.85;;
10479;SDS011;12789;42.610;23.040;2024-02-28T12:57:22;7.53;;;2.47;;
10479;SDS011;12789;42.610;23.040;2024-02-28T12:59:50;4.32;;;2.00;;
10479;SDS011;12789;42.610;23.040;2024-02-28T13:02:16;4.75;;;2.40;;
10479;SDS011;12789;42.610;23.040;2024-02-28T13:04:44;5.85;;;2.25;;
10479;SDS011;12789;42.610;23.040;2024-02-28T13:07:11;6.25;;;2.70;;
10479;SDS011;12789;42.610;23.040;2024-02-28T13:09:37;11.38;;;2.58;;
10479;SDS011;12789;42.610;23.040;2024-02-28T13:12:04;7.53;;;3.13;;
10479;SDS011;12789;42.610;23.040;2024-02-28T13:14:31;7.05;;;2.85;;
10479;SDS011;12789;42.610;23.040;2024-02-28T13:17:00;4.97;;;2.28;;
10479;SDS011;12789;42.610;23.040;2024-02-28T13:19:26;4.85;;;1.88;;
10479;SDS011;12789;42.610;23.040;2024-02-28T13:21:53;6.75;;;2.67;;
10479;SDS011;12789;42.610;23.040;2024-02-28T13:24:19;5.03;;;2.70;;
10479;SDS011;12789;42.610;23.040;2024-02-28T13:26:46;5.38;;;2.63;;
10479;SDS011;12789;42.610;23.040;2024-02-28T13:29:12;7.00;;;2.88;;
10479;SDS011;12789;42.610;23.040;2024-02-28T13:31:39;6.95;;;5.07;;
10479;SDS011;12789;42.610;23.040;2024-02-28T13:34:07;5.63;;;2.72;;
10479;SDS011;12789;42.610;23.040;2024-02-28T13:36:33;7.10;;;2.60;;
10479;SDS011;12789;42.610;23.040;2024-02-28T13:39:02;6.32;;;2.70;;
10479;SDS011;12789;42.610;23.040;2024-02-28T13:41:28;4.40;;;2.47;;
10479;SDS011;12789;42.610;23.040;2024-02-28T13:43:55;4.63;;;2.50;;
10479;SDS011;12789;42.610;23.040;2024-02-28T13:46:21;4.53;;;2.42;;
10479;SDS011;12789;42.610;23.040;2024-02-28T13:48:48;6.70;;;2.22;;
10479;SDS011;12789;42.610;23.040;2024-02-28T13:51:16;4.07;;;2.90;;
10479;SDS011;12789;42.610;23.040;2024-02-28T13:53:42;5.97;;;2.85;;
10479;SDS011;12789;42.610;23.040;2024-02-28T13:56:09;8.00;;;4.30;;
10479;SDS011;12789;42.610;23.040;2024-02-28T13:58:36;6.40;;;3.10;;
10479;SDS011;12789;42.610;23.040;2024-02-28T14:01:02;6.20;;;2.72;;
10479;SDS011;12789;42.610;23.040;2024-02-28T14:03:31;5.65;;;2.70;;
10479;SDS011;12789;42.610;23.040;2024-02-28T14:05:58;8.15;;;3.40;;
10479;SDS011;12789;42.610;23.040;2024-02-28T14:08:26;4.78;;;2.60;;
10479;SDS011;12789;42.610;23.040;2024-02-28T14:10:53;4.82;;;2.42;;
10479;SDS011;12789;42.610;23.040;2024-02-28T14:13:19;10.25;;;2.85;;
10479;SDS011;12789;42.610;23.040;2024-02-28T14:15:46;5.20;;;2.30;;